Fugaku Maru — JH3428 — position and weather

sailwx.info

Track history (hours):
 
Tides and Currents Weather Stations Pressure Air Temp Water Temp Dewpoint Dewpoint Depression Visibility Wind Speed Wind Dir Waves Ship Positions

Fugaku Maru

Last reported at 2015-Sep-03 10:33 UTC. Time now 2015-Sep-03 10:52 UTC.
Position N 35°54' E 140°59'.

Length 165 m; draft 7.2 m.

Type: Cargo ship. MMSI: 431200176.

Date/timePositionNaut miles runAvg speedWind from/ knotsBaromVisibWave heightAir tempDewpointWater temp
2015-Sep-03 10:33N 35°54' E 140°59'2721.4
2015-Sep-03 09:18N 36°21' E 141°03'  
2015-Aug-31 23:33N 36°16' E 141°06'2020.1
2015-Aug-31 22:33N 35°57' E 141°02'2020.0
2015-Aug-31 21:33N 35°37' E 140°59'2121.5
2015-Aug-31 20:33N 35°17' E 140°48'2522.5
2015-Aug-31 19:28N 34°60' E 140°27'2021.7
2015-Aug-31 18:32N 34°49' E 140°06'1919.5
2015-Aug-31 17:33N 34°40' E 139°45'64 2.9
2015-Aug-30 19:27N 34°26' E 138°29'5818.6
2015-Aug-30 16:19N 34°40' E 139°37'1519.0
2015-Aug-30 15:33N 34°46' E 139°54'1919.6
2015-Aug-30 14:33N 34°56' E 140°14'1918.3
2015-Aug-30 13:33N 35°08' E 140°31'1817.7
2015-Aug-30 12:30N 35°24' E 140°43'2318.2
2015-Aug-30 11:15N 35°42' E 140°60'  
2015-Aug-28 00:09N 35°39' E 140°54'1218.3
2015-Aug-27 23:31N 35°29' E 140°47'1918.5
2015-Aug-27 22:31N 35°14' E 140°34'1919.0
2015-Aug-27 21:32N 35°01' E 140°18'1818.7
2015-Aug-27 20:33N 34°52' E 139°59'1918.7
2015-Aug-27 19:33N 34°42' E 139°39'5718.0
2015-Aug-27 16:24N 34°29' E 138°32'56 2.4
2015-Aug-26 17:33N 34°39' E 139°39'1918.3
2015-Aug-26 16:32N 34°46' E 140°00'1716.8
2015-Aug-26 15:33N 34°53' E 140°18'1615.3
2015-Aug-26 14:31N 35°02' E 140°34'2814.3
2015-Aug-26 12:33N 35°25' E 140°53'3115.2
2015-Aug-26 10:30N 35°55' E 141°05'  
Track history (hours):
 
Tides and Currents Weather Stations Pressure Air Temp Water Temp Dewpoint Dewpoint Depression Visibility Wind Speed Wind Dir Waves Ship Positions

Fugaku Maru

Last reported at 2015-Sep-03 10:33 UTC. Time now 2015-Sep-03 10:52 UTC.
Position N 35°54' E 140°59'.

Length 165 m; draft 7.2 m.

Type: Cargo ship. MMSI: 431200176.

Date/timePositionNaut miles runAvg speedWind from/ knotsBaromVisibWave heightAir tempDewpointWater temp
2015-Sep-03 10:33N 35°54' E 140°59'2721.4
2015-Sep-03 09:18N 36°21' E 141°03'  
2015-Aug-31 23:33N 36°16' E 141°06'2020.1
2015-Aug-31 22:33N 35°57' E 141°02'2020.0
2015-Aug-31 21:33N 35°37' E 140°59'2121.5
2015-Aug-31 20:33N 35°17' E 140°48'2522.5
2015-Aug-31 19:28N 34°60' E 140°27'2021.7
2015-Aug-31 18:32N 34°49' E 140°06'1919.5
2015-Aug-31 17:33N 34°40' E 139°45'64 2.9
2015-Aug-30 19:27N 34°26' E 138°29'5818.6
2015-Aug-30 16:19N 34°40' E 139°37'1519.0
2015-Aug-30 15:33N 34°46' E 139°54'1919.6
2015-Aug-30 14:33N 34°56' E 140°14'1918.3
2015-Aug-30 13:33N 35°08' E 140°31'1817.7
2015-Aug-30 12:30N 35°24' E 140°43'2318.2
2015-Aug-30 11:15N 35°42' E 140°60'  
2015-Aug-28 00:09N 35°39' E 140°54'1218.3
2015-Aug-27 23:31N 35°29' E 140°47'1918.5
2015-Aug-27 22:31N 35°14' E 140°34'1919.0
2015-Aug-27 21:32N 35°01' E 140°18'1818.7
2015-Aug-27 20:33N 34°52' E 139°59'1918.7
2015-Aug-27 19:33N 34°42' E 139°39'5718.0
2015-Aug-27 16:24N 34°29' E 138°32'56 2.4
2015-Aug-26 17:33N 34°39' E 139°39'1918.3
2015-Aug-26 16:32N 34°46' E 140°00'1716.8
2015-Aug-26 15:33N 34°53' E 140°18'1615.3
2015-Aug-26 14:31N 35°02' E 140°34'2814.3
2015-Aug-26 12:33N 35°25' E 140°53'3115.2
2015-Aug-26 10:30N 35°55' E 141°05'  

Dump ship's entire track history